Time;durP1;ratioP1;P1;durP2;ratioP2;P2;SDS_P1;SDS_P2;PMS_P1;PMS_P2;Temp;Humidity;BMP_temperature;BMP_pressure;BME280_temperature;BME280_humidity;BME280_pressure;Samples;Min_cycle;Max_cycle;Signal;HPM_P1;HPM_P2
2023/02/07 00:01:27;;;;;;;4.95;2.35;;;;;;;7.66;100.00;102951.59;5013104;28;20088;-76
2023/02/07 00:03:55;;;;;;;7.47;2.63;;;;;;;7.69;100.00;102949.56;4997350;28;20485;-77
2023/02/07 00:06:34;;;;;;;5.90;2.00;;;;;;;7.67;100.00;102943.47;5014095;28;20080;-77
2023/02/07 00:09:01;;;;;;;11.65;3.78;;;;;;;7.59;100.00;102942.25;4993580;28;20041;-76
2023/02/07 00:11:29;;;;;;;6.75;3.67;;;;;;;7.60;100.00;102936.78;4981843;28;20487;-76
2023/02/07 00:13:56;;;;;;;11.73;4.93;;;;;;;7.63;100.00;102949.13;4980475;28;20030;-77
2023/02/07 00:16:26;;;;;;;17.52;4.07;;;;;;;7.64;100.00;102945.47;4997315;28;20064;-77
2023/02/07 00:18:55;;;;;;;19.65;3.05;;;;;;;7.62;100.00;102944.72;4997332;28;20447;-76
2023/02/07 00:21:28;;;;;;;12.73;4.03;;;;;;;7.61;100.00;102935.81;4980295;28;20034;-77
2023/02/07 00:23:55;;;;;;;9.02;4.07;;;;;;;7.56;100.00;102921.88;4981035;28;20128;-77
2023/02/07 00:26:24;;;;;;;15.75;4.43;;;;;;;7.66;100.00;102932.84;5012256;28;20420;-76
2023/02/07 00:28:52;;;;;;;11.77;3.67;;;;;;;7.65;100.00;102941.84;4996474;28;20088;-77
2023/02/07 00:31:27;;;;;;;15.52;5.38;;;;;;;7.68;100.00;102936.28;4981049;28;20037;-77
2023/02/07 00:34:02;;;;;;;9.50;5.28;;;;;;;7.65;100.00;102936.50;5008791;28;20050;-76
2023/02/07 00:36:29;;;;;;;9.32;4.55;;;;;;;7.41;100.00;102898.81;4980889;28;20392;-76
2023/02/07 00:39:03;;;;;;;13.80;5.53;;;;;;;7.55;100.00;102933.56;4996503;28;20540;-76
2023/02/07 00:41:29;;;;;;;4.93;2.65;;;;;;;7.56;100.00;102937.09;4980012;28;20040;-77
2023/02/07 00:43:57;;;;;;;11.32;3.45;;;;;;;7.54;100.00;102930.97;5012600;28;20034;-77
2023/02/07 00:46:23;;;;;;;13.02;5.50;;;;;;;7.46;100.00;102931.50;5012748;28;20044;-77
2023/02/07 00:48:51;;;;;;;12.00;4.50;;;;;;;7.42;100.00;102941.56;4996218;28;20037;-76
2023/02/07 00:51:17;;;;;;;18.48;6.05;;;;;;;7.20;100.00;102912.69;5012980;28;20029;-77
2023/02/07 00:53:46;;;;;;;6.40;3.40;;;;;;;7.24;100.00;102935.59;4996716;28;20124;-76
2023/02/07 00:56:22;;;;;;;13.63;4.77;;;;;;;6.96;100.00;102908.91;5012585;28;20109;-76
2023/02/07 00:58:48;;;;;;;15.32;5.07;;;;;;;7.14;100.00;102939.81;5009871;28;20387;-76
2023/02/07 01:01:14;;;;;;;7.90;3.45;;;;;;;6.98;100.00;102931.06;4995997;28;20468;-76
2023/02/07 01:03:40;;;;;;;5.38;2.72;;;;;;;6.81;100.00;102927.69;4980161;28;20068;-76
2023/02/07 01:06:12;;;;;;;5.75;2.72;;;;;;;6.91;100.00;102952.03;4980425;28;20467;-77
2023/02/07 01:08:43;;;;;;;12.75;2.80;;;;;;;6.82;100.00;102942.75;5011730;28;20053;-77
2023/02/07 01:11:13;;;;;;;11.30;4.25;;;;;;;6.91;100.00;102957.38;4991857;28;20113;-76
2023/02/07 01:13:43;;;;;;;12.90;3.47;;;;;;;6.89;100.00;102945.91;4995620;28;20461;-76
2023/02/07 01:16:23;;;;;;;8.52;3.60;;;;;;;6.98;100.00;102958.69;4996877;28;20034;-77
2023/02/07 01:18:49;;;;;;;11.18;4.25;;;;;;;6.98;100.00;102953.31;5028459;28;20042;-78
2023/02/07 01:21:20;;;;;;;5.93;2.70;;;;;;;7.11;100.00;102953.41;4996096;28;20095;-77
2023/02/07 01:23:46;;;;;;;4.63;2.45;;;;;;;7.17;100.00;102958.38;4991652;28;20037;-77
2023/02/07 01:26:12;;;;;;;9.05;2.25;;;;;;;7.20;100.00;102952.81;4995510;28;20129;-76
2023/02/07 01:28:40;;;;;;;6.03;2.88;;;;;;;7.26;100.00;102956.91;4996037;28;20042;-76
2023/02/07 01:31:10;;;;;;;4.30;3.10;;;;;;;7.19;100.00;102934.19;4995462;28;20033;-76
2023/02/07 01:33:37;;;;;;;18.05;4.45;;;;;;;7.27;100.00;102956.78;4996429;28;20478;-76
2023/02/07 01:36:16;;;;;;;14.00;4.93;;;;;;;7.26;100.00;102952.41;5012077;28;20404;-77
2023/02/07 01:38:44;;;;;;;14.52;3.85;;;;;;;7.28;100.00;102955.00;5013750;28;20030;-76
2023/02/07 01:41:17;;;;;;;10.57;3.58;;;;;;;7.26;100.00;102954.22;4999986;28;20037;-77
2023/02/07 01:44:01;;;;;;;10.00;2.78;;;;;;;7.17;100.00;102936.09;4984045;28;20129;-76
2023/02/07 01:46:27;;;;;;;;;;;;;;;7.22;100.00;102956.25;4984169;28;20088;-77
2023/02/07 01:49:04;;;;;;;11.77;3.58;;;;;;;7.17;100.00;102958.38;4983077;28;19921;-79
2023/02/07 01:51:33;;;;;;;6.70;2.70;;;;;;;7.12;100.00;102964.94;5000164;28;20431;-76
2023/02/07 01:54:01;;;;;;;15.43;3.60;;;;;;;7.05;100.00;102956.47;4983670;28;20037;-76
2023/02/07 01:56:27;;;;;;;15.85;4.05;;;;;;;7.12;100.00;102959.59;4998816;28;20470;-76
2023/02/07 01:58:56;;;;;;;2.67;1.30;;;;;;;7.18;100.00;102962.75;4983412;28;20121;-76
2023/02/07 02:01:24;;;;;;;7.63;3.75;;;;;;;7.20;100.00;102962.66;4999457;28;20033;-78
2023/02/07 02:03:53;;;;;;;8.60;2.60;;;;;;;6.94;100.00;102929.56;5015448;28;20411;-76
2023/02/07 02:06:20;;;;;;;9.95;3.58;;;;;;;7.19;100.00;102963.59;4983565;28;20494;-77
2023/02/07 02:08:46;;;;;;;5.72;2.30;;;;;;;7.16;100.00;102955.78;4998920;28;20036;-77
2023/02/07 02:11:20;;;;;;;17.75;3.72;;;;;;;7.17;100.00;102973.53;4999668;28;20030;-77
2023/02/07 02:14:01;;;;;;;6.72;3.75;;;;;;;7.17;100.00;102984.25;4983075;28;20026;-77
2023/02/07 02:16:44;;;;;;;8.93;2.33;;;;;;;7.15;100.00;102967.47;5016858;28;20163;-76
2023/02/07 02:19:13;;;;;;;7.22;2.47;;;;;;;7.07;100.00;102951.91;4999555;28;20472;-77
2023/02/07 02:22:12;;;;;;;9.40;3.30;;;;;;;7.09;100.00;102971.34;5015094;28;20392;-77
2023/02/07 02:25:06;;;;;;;10.23;3.97;;;;;;;6.94;100.00;102954.50;5015678;28;20042;-77
2023/02/07 02:28:03;;;;;;;10.10;4.07;;;;;;;6.96;100.00;102968.63;5008336;28;20381;-76
2023/02/07 02:31:10;;;;;;;5.93;2.95;;;;;;;6.78;100.00;102940.41;5001279;28;20038;-77
2023/02/07 02:33:45;;;;;;;9.45;3.13;;;;;;;6.89;100.00;102953.09;4993068;28;20457;-76
2023/02/07 02:36:53;;;;;;;10.82;2.58;;;;;;;6.98;100.00;102957.81;4999422;28;20046;-76
2023/02/07 02:39:24;;;;;;;12.95;3.53;;;;;;;6.93;100.00;102950.13;5014427;28;20030;-77
2023/02/07 02:42:24;;;;;;;11.70;3.72;;;;;;;7.04;100.00;102966.31;4998939;28;20042;-76
2023/02/07 02:45:08;;;;;;;5.75;2.22;;;;;;;7.07;100.00;102961.75;4995626;28;20116;-77
2023/02/07 02:47:35;;;;;;;4.88;2.47;;;;;;;7.10;100.00;102962.41;4999698;28;20064;-77
2023/02/07 02:50:04;;;;;;;9.07;3.00;;;;;;;7.14;100.00;102963.03;4981535;28;20065;-77
2023/02/07 02:52:31;;;;;;;13.73;3.70;;;;;;;7.13;100.00;102964.88;4998225;28;20117;-76
2023/02/07 02:55:01;;;;;;;6.47;2.92;;;;;;;7.06;100.00;102960.88;5014931;28;20065;-77
2023/02/07 02:57:48;;;;;;;6.63;2.42;;;;;;;7.01;100.00;102971.88;4981940;28;20037;-78
2023/02/07 03:00:34;;;;;;;5.30;2.15;;;;;;;6.83;100.00;102951.66;5013748;28;20037;-77
2023/02/07 03:03:28;;;;;;;15.93;4.38;;;;;;;6.94;100.00;102978.56;5013874;28;20094;-78
2023/02/07 03:06:35;;;;;;;6.30;3.15;;;;;;;6.89;100.00;102975.31;5014083;28;20045;-79
2023/02/07 03:09:31;;;;;;;8.02;3.15;;;;;;;6.84;100.00;102977.44;4981991;28;20095;-78
2023/02/07 03:12:25;;;;;;;10.88;3.35;;;;;;;6.68;100.00;102964.16;5029307;28;20406;-77
2023/02/07 03:15:23;;;;;;;15.93;3.47;;;;;;;6.57;100.00;102938.13;4998998;28;20522;-78
2023/02/07 03:17:59;;;;;;;10.43;3.88;;;;;;;6.75;100.00;102973.53;5013808;28;20026;-78
2023/02/07 03:21:07;;;;;;;12.55;3.53;;;;;;;6.79;100.00;102969.69;4999130;28;20042;-77
2023/02/07 03:23:38;;;;;;;7.95;3.25;;;;;;;6.83;100.00;102973.91;4995786;28;20521;-77
2023/02/07 03:26:07;;;;;;;7.85;3.20;;;;;;;6.89;100.00;102978.00;4983023;28;20037;-77
2023/02/07 03:28:35;;;;;;;14.32;4.22;;;;;;;6.97;100.00;102964.16;4996302;28;20191;-78
2023/02/07 03:31:04;;;;;;;13.07;4.10;;;;;;;7.00;100.00;102969.28;5013971;28;20038;-77
2023/02/07 03:33:32;;;;;;;11.30;4.22;;;;;;;7.01;100.00;102979.91;4981428;28;20026;-76
2023/02/07 03:36:11;;;;;;;11.35;3.20;;;;;;;7.06;100.00;102976.91;5014298;28;20117;-77
2023/02/07 03:38:53;;;;;;;6.38;3.13;;;;;;;7.10;100.00;102977.59;5013937;28;20037;-77
2023/02/07 03:41:51;;;;;;;10.07;3.03;;;;;;;7.15;100.00;102976.34;4982216;28;20050;-75
2023/02/07 03:44:28;;;;;;;16.37;3.97;;;;;;;7.03;100.00;102959.25;5013808;28;20034;-78
2023/02/07 03:47:00;;;;;;;7.57;3.05;;;;;;;7.14;100.00;102977.28;4983159;28;20034;-77
2023/02/07 03:49:26;;;;;;;9.20;2.97;;;;;;;7.17;100.00;102973.53;4997560;28;20395;-77
2023/02/07 03:51:52;;;;;;;10.07;3.33;;;;;;;7.01;100.00;102955.84;4997027;28;20037;-77
2023/02/07 03:54:17;;;;;;;16.38;2.92;;;;;;;7.14;100.00;102982.63;4981590;28;20038;-78
2023/02/07 03:56:48;;;;;;;5.00;2.85;;;;;;;7.05;100.00;102975.22;5013663;28;20399;-77
2023/02/07 03:59:14;;;;;;;9.32;3.90;;;;;;;6.95;100.00;102977.59;4981272;28;20128;-78
2023/02/07 04:01:41;;;;;;;6.97;3.63;;;;;;;6.84;100.00;102974.75;4997169;28;20121;-77
2023/02/07 04:04:11;;;;;;;3.35;1.75;;;;;;;6.83;100.00;102989.94;4995995;28;20088;-78
2023/02/07 04:06:39;;;;;;;11.63;2.90;;;;;;;6.70;100.00;102980.13;4982145;28;20049;-78
2023/02/07 04:09:05;;;;;;;8.73;3.55;;;;;;;6.63;100.00;102979.63;5012126;28;20471;-78
2023/02/07 04:11:33;;;;;;;9.57;2.50;;;;;;;6.55;100.00;102977.44;5013515;28;20487;-77
2023/02/07 04:13:58;;;;;;;14.52;3.35;;;;;;;6.52;100.00;102990.16;5013277;28;20026;-77
2023/02/07 04:16:27;;;;;;;13.65;2.72;;;;;;;6.39;100.00;102974.00;4996538;28;20056;-78
2023/02/07 04:18:55;;;;;;;9.30;3.22;;;;;;;6.49;100.00;102993.88;4996981;28;20029;-78
2023/02/07 04:21:21;;;;;;;4.68;2.38;;;;;;;6.45;100.00;102989.66;5013019;28;20180;-78
2023/02/07 04:23:52;;;;;;;9.98;3.00;;;;;;;6.39;100.00;102974.00;4996801;28;20504;-77
2023/02/07 04:26:17;;;;;;;9.90;3.08;;;;;;;6.39;100.00;102976.66;4997389;28;20042;-79
2023/02/07 04:28:43;;;;;;;9.77;3.70;;;;;;;6.40;100.00;102978.38;4995763;28;20057;-77
2023/02/07 04:31:17;;;;;;;9.20;3.40;;;;;;;6.42;100.00;102979.16;4997866;28;20084;-78
2023/02/07 04:33:42;;;;;;;10.10;3.67;;;;;;;6.30;100.00;102961.22;5012657;28;20041;-77
2023/02/07 04:36:08;;;;;;;8.27;2.85;;;;;;;6.31;100.00;102962.91;5013372;28;20036;-76
2023/02/07 04:38:34;;;;;;;19.50;3.30;;;;;;;6.33;100.00;102974.38;4996781;28;20038;-78
2023/02/07 04:41:04;;;;;;;9.85;3.50;;;;;;;6.39;100.00;102992.69;4996137;28;20053;-78
2023/02/07 04:43:31;;;;;;;10.55;3.60;;;;;;;6.27;100.00;102974.72;4996556;28;20550;-79
2023/02/07 04:45:59;;;;;;;8.68;2.95;;;;;;;6.28;100.00;102984.50;4996704;28;20034;-79
2023/02/07 04:48:25;;;;;;;6.60;3.92;;;;;;;6.31;100.00;102984.28;4996432;28;20456;-78
2023/02/07 04:50:53;;;;;;;10.95;3.63;;;;;;;6.37;100.00;102989.25;4996474;28;20095;-78
2023/02/07 04:53:19;;;;;;;10.43;3.80;;;;;;;6.39;100.00;102995.38;4995564;28;20542;-78
2023/02/07 04:55:54;;;;;;;6.75;3.47;;;;;;;6.38;100.00;102974.97;4980607;28;20081;-77
2023/02/07 04:58:23;;;;;;;7.97;4.10;;;;;;;6.39;100.00;102993.56;4996196;28;20511;-80
2023/02/07 05:00:49;;;;;;;11.10;4.43;;;;;;;6.38;100.00;102994.53;4995382;28;20388;-77
2023/02/07 05:03:15;;;;;;;14.40;4.40;;;;;;;6.34;100.00;102995.66;4996394;28;20464;-77
2023/02/07 05:05:41;;;;;;;16.10;4.70;;;;;;;6.34;100.00;102998.31;4995589;28;20085;-78
2023/02/07 05:08:10;;;;;;;12.30;4.65;;;;;;;6.26;100.00;102975.69;4980828;28;20056;-77
2023/02/07 05:10:56;;;;;;;13.82;4.55;;;;;;;6.30;100.00;102993.28;4999097;28;20484;-78
2023/02/07 05:13:23;;;;;;;11.43;4.43;;;;;;;6.27;100.00;102997.00;4994869;28;20044;-77
2023/02/07 05:15:49;;;;;;;18.85;5.63;;;;;;;6.23;100.00;102991.91;5012410;28;20034;-77
2023/02/07 05:18:20;;;;;;;7.47;3.95;;;;;;;6.29;100.00;103002.22;4994799;28;20526;-77
2023/02/07 05:20:46;;;;;;;13.52;4.13;;;;;;;6.28;100.00;102997.84;5012458;28;20034;-77
2023/02/07 05:23:12;;;;;;;14.02;5.43;;;;;;;6.28;100.00;102996.03;4979996;28;20038;-78
2023/02/07 05:25:43;;;;;;;10.32;4.35;;;;;;;6.29;100.00;102995.06;5011079;28;20036;-78
2023/02/07 05:28:09;;;;;;;10.75;4.22;;;;;;;6.21;100.00;102989.31;4996576;28;20096;-77
2023/02/07 05:30:41;;;;;;;9.68;4.70;;;;;;;6.23;100.00;102992.78;5011182;28;20022;-78
2023/02/07 05:33:07;;;;;;;21.25;6.25;;;;;;;6.22;100.00;103001.75;4980398;28;20041;-76
2023/02/07 05:35:45;;;;;;;13.55;6.38;;;;;;;6.21;100.00;102993.81;4980083;28;20038;-78
2023/02/07 05:38:17;;;;;;;12.50;4.65;;;;;;;6.22;100.00;102992.84;5012195;28;20076;-77
2023/02/07 05:40:42;;;;;;;7.50;4.03;;;;;;;6.19;100.00;102996.56;4980397;28;20124;-77
2023/02/07 05:43:12;;;;;;;8.88;3.83;;;;;;;6.19;100.00;102999.25;4994863;28;20038;-77
2023/02/07 05:45:41;;;;;;;7.78;3.88;;;;;;;6.15;100.00;102998.56;4995881;28;20073;-77
2023/02/07 05:48:07;;;;;;;11.68;4.38;;;;;;;6.16;100.00;103002.94;4979988;28;20495;-77
2023/02/07 05:50:36;;;;;;;8.18;3.55;;;;;;;6.21;100.00;103009.84;5011017;28;20538;-77
2023/02/07 05:53:04;;;;;;;9.40;3.50;;;;;;;6.13;100.00;102992.47;5012179;28;20088;-77
2023/02/07 05:55:34;;;;;;;13.02;3.97;;;;;;;6.23;100.00;103007.94;4995105;28;20092;-77
2023/02/07 05:58:02;;;;;;;8.05;3.88;;;;;;;6.22;100.00;103009.78;4979863;28;20042;-77
2023/02/07 06:00:30;;;;;;;13.38;4.50;;;;;;;6.20;100.00;103010.81;5012071;28;20061;-78
2023/02/07 06:03:00;;;;;;;10.32;4.00;;;;;;;6.21;100.00;103004.50;5011314;28;20520;-77
2023/02/07 06:05:30;;;;;;;16.80;5.40;;;;;;;6.08;100.00;102994.53;4995759;28;20427;-77
2023/02/07 06:07:58;;;;;;;14.98;4.93;;;;;;;6.20;100.00;103008.13;5011608;28;20036;-77
2023/02/07 06:10:24;;;;;;;28.05;8.32;;;;;;;6.15;100.00;102997.72;5012087;28;20030;-77
2023/02/07 06:12:54;;;;;;;26.70;9.15;;;;;;;6.12;100.00;102992.56;4979671;28;20403;-77
2023/02/07 06:15:24;;;;;;;28.05;8.68;;;;;;;6.21;100.00;103002.69;4995644;28;20034;-77
2023/02/07 06:17:50;;;;;;;32.17;9.18;;;;;;;6.26;100.00;103003.28;5011985;28;20457;-78
2023/02/07 06:20:16;;;;;;;50.78;15.85;;;;;;;6.26;100.00;103000.59;4994915;28;20120;-78
2023/02/07 06:22:47;;;;;;;38.10;13.50;;;;;;;6.09;100.00;102976.72;4995582;28;20034;-77
2023/02/07 06:25:16;;;;;;;22.02;10.02;;;;;;;6.28;100.00;102992.50;4996879;28;20030;-78
2023/02/07 06:27:41;;;;;;;20.40;5.63;;;;;;;6.28;100.00;102997.84;5015492;28;20034;-77
2023/02/07 06:30:09;;;;;;;9.43;4.18;;;;;;;6.34;100.00;103008.16;4999358;28;20026;-77
2023/02/07 06:32:34;;;;;;;11.77;5.07;;;;;;;6.35;100.00;103016.09;5014112;28;20038;-77
2023/02/07 06:35:00;;;;;;;29.50;7.72;;;;;;;6.36;100.00;103019.63;4999324;28;20038;-77
2023/02/07 06:37:26;;;;;;;19.08;6.25;;;;;;;6.35;100.00;103007.19;4998987;28;20499;-77
2023/02/07 06:39:52;;;;;;;24.02;7.60;;;;;;;6.37;100.00;103018.66;4981891;28;20030;-77
2023/02/07 06:42:17;;;;;;;21.83;6.85;;;;;;;6.27;100.00;103002.34;4966770;28;20034;-77
2023/02/07 06:44:43;;;;;;;18.33;5.55;;;;;;;6.35;100.00;103020.53;4998705;28;20049;-77
2023/02/07 06:47:09;;;;;;;13.27;5.40;;;;;;;6.34;100.00;103018.84;4982293;28;20034;-77
2023/02/07 06:49:35;;;;;;;11.73;5.10;;;;;;;6.19;100.00;102996.56;5015206;28;20468;-77
2023/02/07 06:52:00;;;;;;;15.88;5.53;;;;;;;6.28;100.00;103011.22;5014189;28;20072;-77
2023/02/07 06:54:26;;;;;;;22.15;8.45;;;;;;;6.35;100.00;103025.91;4982626;28;20065;-77
2023/02/07 06:56:52;;;;;;;25.30;12.27;;;;;;;6.25;100.00;103011.41;4998731;28;20038;-77
2023/02/07 06:59:17;;;;;;;31.42;13.70;;;;;;;6.29;100.00;103020.94;4997957;28;20037;-77
2023/02/07 07:01:43;;;;;;;26.65;10.07;;;;;;;6.27;100.00;103020.16;4982592;28;20037;-77
2023/02/07 07:04:11;;;;;;;30.17;11.82;;;;;;;6.21;100.00;103023.19;4981750;28;20476;-77
2023/02/07 07:06:37;;;;;;;31.73;11.52;;;;;;;6.08;100.00;103017.72;5014479;28;20041;-76
2023/02/07 07:09:03;;;;;;;15.93;5.10;;;;;;;5.93;100.00;103027.50;4998677;28;20029;-77
2023/02/07 07:11:29;;;;;;;12.73;4.40;;;;;;;5.76;100.00;103012.44;4997570;28;20480;-77
2023/02/07 07:13:54;;;;;;;9.60;4.35;;;;;;;5.55;100.00;103001.19;4998494;28;20036;-76
2023/02/07 07:16:20;;;;;;;8.98;3.83;;;;;;;5.47;100.00;103019.44;5013908;28;20037;-78
2023/02/07 07:18:46;;;;;;;8.95;3.88;;;;;;;5.10;100.00;103002.84;4997302;28;20390;-77
2023/02/07 07:21:12;;;;;;;16.80;5.43;;;;;;;4.87;100.00;103003.22;5014661;28;20026;-77
2023/02/07 07:23:37;;;;;;;9.07;4.05;;;;;;;4.58;100.00;103008.34;5013907;28;20040;-77
2023/02/07 07:26:04;;;;;;;11.25;4.00;;;;;;;4.43;100.00;103023.34;4998296;28;20040;-78
2023/02/07 07:28:29;;;;;;;14.20;4.75;;;;;;;4.16;100.00;103007.00;5014555;28;20030;-77
2023/02/07 07:31:02;;;;;;;8.35;4.00;;;;;;;4.08;100.00;103014.50;4981106;28;20056;-77
2023/02/07 07:33:27;;;;;;;15.10;4.60;;;;;;;4.08;100.00;103017.16;4998214;28;20038;-77
2023/02/07 07:35:56;;;;;;;11.40;3.70;;;;;;;4.15;100.00;103034.53;4997226;28;20142;-77
2023/02/07 07:38:22;;;;;;;10.30;4.72;;;;;;;4.22;100.00;103027.97;4997109;28;20042;-77
2023/02/07 07:40:48;;;;;;;10.15;4.18;;;;;;;4.30;100.00;103020.44;4997672;28;20038;-77
2023/02/07 07:43:14;;;;;;;6.30;3.80;;;;;;;4.53;100.00;103035.22;5013430;28;20088;-77
2023/02/07 07:45:42;;;;;;;10.23;4.30;;;;;;;4.57;100.00;103031.44;4997755;28;20046;-77
2023/02/07 07:48:08;;;;;;;16.02;4.07;;;;;;;4.65;100.00;103039.03;4981745;28;20030;-77
2023/02/07 07:50:33;;;;;;;14.05;4.47;;;;;;;4.61;100.00;103050.81;4981102;28;20038;-77
2023/02/07 07:52:59;;;;;;;19.40;4.78;;;;;;;4.46;100.00;103051.63;4997719;28;20061;-77
2023/02/07 07:55:27;;;;;;;8.82;3.88;;;;;;;4.24;100.00;103046.53;4981503;28;20088;-77
2023/02/07 07:57:53;;;;;;;6.63;3.47;;;;;;;4.06;100.00;103056.31;4981116;28;20392;-76
2023/02/07 08:00:19;;;;;;;9.45;3.83;;;;;;;4.10;100.00;103066.75;4981098;28;20467;-78
2023/02/07 08:02:45;;;;;;;10.63;4.78;;;;;;;4.24;100.00;103063.38;4981168;28;20045;-77
2023/02/07 08:05:26;;;;;;;14.60;7.05;;;;;;;4.01;100.00;102991.78;5013211;28;20491;-79
2023/02/07 08:07:55;;;;;;;10.55;5.18;;;;;;;4.55;100.00;103061.78;4998375;28;20565;-76
2023/02/07 08:10:21;;;;;;;15.40;4.60;;;;;;;4.67;100.00;103070.94;4981238;28;20038;-76
2023/02/07 08:12:46;;;;;;;10.10;4.15;;;;;;;4.73;100.00;103066.13;5012303;28;20088;-76
2023/02/07 08:15:12;;;;;;;16.45;4.82;;;;;;;4.76;100.00;103066.00;4996734;28;20061;-77
2023/02/07 08:17:39;;;;;;;7.47;3.78;;;;;;;4.85;100.00;103073.50;5012283;28;20121;-76
2023/02/07 08:20:05;;;;;;;16.77;5.82;;;;;;;4.99;100.00;103066.56;4996505;28;20125;-77
2023/02/07 08:22:31;;;;;;;12.57;4.68;;;;;;;5.00;100.00;103066.50;4996180;28;20391;-76
2023/02/07 08:24:56;;;;;;;9.90;4.65;;;;;;;5.13;100.00;103079.13;5011837;28;20034;-77
2023/02/07 08:27:22;;;;;;;12.02;4.30;;;;;;;5.19;100.00;103068.16;5012327;28;20030;-76
2023/02/07 08:29:48;;;;;;;11.40;5.10;;;;;;;5.28;100.00;103075.63;5011800;28;20068;-76
2023/02/07 08:32:13;;;;;;;10.43;4.93;;;;;;;5.36;100.00;103080.56;4997010;28;20029;-76
2023/02/07 08:34:39;;;;;;;9.15;4.65;;;;;;;5.32;100.00;103063.00;4996985;28;20044;-76
2023/02/07 08:37:06;;;;;;;10.10;4.53;;;;;;;5.44;100.00;103081.00;4996120;28;20029;-76
2023/02/07 08:39:35;;;;;;;9.95;4.70;;;;;;;5.41;100.00;103073.16;5013104;28;20545;-77
2023/02/07 08:42:04;;;;;;;14.35;4.75;;;;;;;5.48;100.00;103067.41;5012725;28;20467;-77
2023/02/07 08:44:33;;;;;;;16.48;4.38;;;;;;;5.51;100.00;103067.22;4996741;28;20038;-76
2023/02/07 08:47:11;;;;;;;13.68;7.38;;;;;;;5.59;100.00;103077.47;5012304;28;20443;-77
2023/02/07 08:49:52;;;;;;;12.30;6.10;;;;;;;5.66;100.00;103078.84;4998561;28;20034;-78
2023/02/07 08:52:17;;;;;;;11.65;5.93;;;;;;;5.80;100.00;103074.53;5012966;28;20803;-78
2023/02/07 08:54:43;;;;;;;12.38;6.35;;;;;;;6.03;100.00;103084.75;5012433;28;20037;-78
2023/02/07 08:57:09;;;;;;;12.02;6.55;;;;;;;6.18;100.00;103082.16;5012510;28;20530;-79
2023/02/07 08:59:35;;;;;;;13.35;7.40;;;;;;;6.33;100.00;103086.59;5012457;28;20037;-78
2023/02/07 09:02:01;;;;;;;18.38;8.57;;;;;;;6.35;100.00;103080.22;4996668;28;20083;-76
2023/02/07 09:04:27;;;;;;;17.30;7.93;;;;;;;6.50;100.00;103082.91;4996622;28;20053;-78
2023/02/07 09:06:55;;;;;;;23.48;10.60;;;;;;;6.51;100.00;103074.81;4996582;28;20460;-79
2023/02/07 09:09:21;;;;;;;19.83;9.13;;;;;;;6.69;100.00;103090.69;5012740;28;20030;-76
2023/02/07 09:11:46;;;;;;;16.25;7.40;;;;;;;7.09;100.00;103104.28;4980385;28;20476;-77
2023/02/07 09:14:12;;;;;;;19.75;6.80;;;;;;;7.36;100.00;103086.50;4980080;28;20041;-77
2023/02/07 09:16:38;;;;;;;16.67;6.82;;;;;;;7.44;100.00;103091.34;5012281;28;20495;-77
2023/02/07 09:19:03;;;;;;;18.15;5.38;;;;;;;7.44;100.00;103100.25;4996187;28;20124;-78
2023/02/07 09:21:30;;;;;;;17.17;5.50;;;;;;;7.37;100.00;103106.09;4996399;28;20033;-77
2023/02/07 09:23:56;;;;;;;17.35;5.03;;;;;;;7.30;100.00;103102.91;4996500;28;20083;-77
2023/02/07 09:26:25;;;;;;;11.30;5.03;;;;;;;7.34;100.00;103109.81;4996349;28;20128;-76
2023/02/07 09:28:51;;;;;;;12.55;5.10;;;;;;;7.27;100.00;103097.75;4996760;28;20034;-78
2023/02/07 09:31:17;;;;;;;9.57;4.70;;;;;;;7.35;100.00;103124.91;5012449;28;20494;-79
2023/02/07 09:33:43;;;;;;;13.38;4.60;;;;;;;7.49;100.00;103121.38;4996302;28;20038;-78
2023/02/07 09:36:24;;;;;;;13.80;5.72;;;;;;;7.62;100.00;103097.31;4996026;28;20040;-77
2023/02/07 09:38:50;;;;;;;12.55;5.03;;;;;;;7.96;100.00;103125.44;4995962;28;20030;-77
2023/02/07 09:41:47;;;;;;;13.88;6.85;;;;;;;8.17;100.00;103130.34;5012310;28;20167;-78
2023/02/07 09:44:24;;;;;;;17.08;5.10;;;;;;;8.27;100.00;103126.97;5012528;28;20543;-78
2023/02/07 09:47:04;;;;;;;13.73;5.32;;;;;;;8.34;100.00;103128.28;5012518;28;20022;-79
2023/02/07 09:49:43;;;;;;;17.77;6.88;;;;;;;8.47;100.00;103131.03;5012126;28;20041;-79
2023/02/07 09:52:13;;;;;;;13.68;5.57;;;;;;;8.51;100.00;103118.25;4995899;28;20041;-76
2023/02/07 09:54:49;;;;;;;12.60;5.93;;;;;;;8.70;100.00;103123.22;4996214;28;20041;-76
2023/02/07 09:57:40;;;;;;;13.27;6.53;;;;;;;8.79;100.00;103115.41;4980068;28;20543;-75
2023/02/07 10:00:14;;;;;;;14.40;6.72;;;;;;;9.06;100.00;103127.84;5015449;28;20141;-76
2023/02/07 10:02:51;;;;;;;14.85;6.07;;;;;;;9.35;100.00;103133.00;5015994;28;20036;-78
2023/02/07 10:05:26;;;;;;;11.55;5.53;;;;;;;9.74;100.00;103131.94;4999190;28;20041;-76
2023/02/07 10:07:54;;;;;;;8.00;4.97;;;;;;;10.01;100.00;103115.59;5013186;28;20542;-77
2023/02/07 10:10:39;;;;;;;14.57;4.53;;;;;;;10.22;100.00;103114.97;4983425;28;20030;-76
2023/02/07 10:13:29;;;;;;;9.93;3.65;;;;;;;10.71;100.00;103130.91;5000180;28;20037;-77
2023/02/07 10:15:57;;;;;;;9.60;4.35;;;;;;;11.37;100.00;103135.66;5015745;28;20065;-76
2023/02/07 10:18:30;;;;;;;15.02;4.05;;;;;;;11.16;100.00;103130.97;5016277;28;20696;-77
2023/02/07 10:21:31;;;;;;;9.57;3.70;;;;;;;11.05;97.90;103117.53;5015732;28;20042;-76
2023/02/07 10:24:18;;;;;;;9.27;3.22;;;;;;;11.18;97.18;103112.03;4999200;28;20037;-76
2023/02/07 10:26:51;;;;;;;11.52;4.80;;;;;;;11.35;94.85;103119.63;5015465;28;20060;-78
2023/02/07 10:29:58;;;;;;;13.25;4.20;;;;;;;11.91;92.59;103117.81;5015287;28;20030;-77
2023/02/07 10:32:35;;;;;;;13.98;3.58;;;;;;;11.96;90.86;103126.41;4999834;28;20034;-77
2023/02/07 10:35:13;;;;;;;7.18;2.35;;;;;;;12.00;89.01;103117.94;4982848;28;20033;-77
2023/02/07 10:37:45;;;;;;;12.15;4.35;;;;;;;12.11;87.91;103114.34;4999036;28;20034;-77
2023/02/07 10:40:16;;;;;;;9.95;3.90;;;;;;;12.17;87.19;103086.88;5015419;28;20037;-77
2023/02/07 10:42:49;;;;;;;11.38;3.85;;;;;;;12.39;88.24;103128.22;5016646;28;20540;-77
2023/02/07 10:45:18;;;;;;;13.25;3.53;;;;;;;12.30;88.40;103125.31;4999125;28;20038;-77
2023/02/07 10:47:52;;;;;;;7.25;2.92;;;;;;;12.23;87.02;103134.91;4999796;28;20034;-77
2023/02/07 10:50:22;;;;;;;8.80;3.80;;;;;;;12.09;87.38;103124.38;5014863;28;20088;-76
2023/02/07 10:52:56;;;;;;;12.02;3.67;;;;;;;12.08;87.58;103141.56;4997656;28;20038;-77
2023/02/07 10:55:41;;;;;;;8.63;4.10;;;;;;;12.14;88.19;103149.13;4998860;28;20184;-77
2023/02/07 10:58:17;;;;;;;17.80;4.75;;;;;;;12.19;87.13;103138.81;4982217;28;20085;-77
2023/02/07 11:00:48;;;;;;;13.57;3.78;;;;;;;12.15;86.95;103137.38;4999207;28;20038;-77
2023/02/07 11:03:24;;;;;;;10.43;3.45;;;;;;;12.13;86.62;103144.75;4982299;28;20073;-76
2023/02/07 11:05:55;;;;;;;10.30;3.70;;;;;;;12.06;85.78;103146.22;5014627;28;20037;-77
2023/02/07 11:08:27;;;;;;;10.60;2.83;;;;;;;11.97;84.90;103149.69;5013942;28;20395;-76
2023/02/07 11:10:56;;;;;;;7.65;2.78;;;;;;;11.77;86.03;103133.25;5014084;28;20460;-76
2023/02/07 11:13:25;;;;;;;8.73;3.47;;;;;;;11.59;86.10;103146.44;4982582;28;20082;-77
2023/02/07 11:15:55;;;;;;;9.70;3.60;;;;;;;11.43;87.38;103146.81;4981627;28;20041;-77
2023/02/07 11:18:36;;;;;;;13.25;3.42;;;;;;;11.41;88.51;103151.44;5014456;28;20033;-76
2023/02/07 11:21:05;;;;;;;7.78;2.72;;;;;;;11.41;88.14;103151.44;5014833;28;20384;-76
2023/02/07 11:23:31;;;;;;;8.70;3.53;;;;;;;11.29;87.76;103143.50;4982203;28;20038;-77
2023/02/07 11:25:56;;;;;;;14.25;3.30;;;;;;;11.21;88.29;103149.47;4981674;28;20045;-76
2023/02/07 11:28:25;;;;;;;9.60;3.45;;;;;;;11.11;88.95;103152.03;5013992;28;20487;-77
2023/02/07 11:30:55;;;;;;;10.95;3.28;;;;;;;11.04;90.17;103158.91;5014378;28;20026;-76
2023/02/07 11:33:25;;;;;;;10.35;3.22;;;;;;;10.94;91.06;103156.06;4982303;28;20044;-77
2023/02/07 11:36:03;;;;;;;10.95;3.85;;;;;;;10.73;90.98;103146.97;4997737;28;20096;-77
2023/02/07 11:38:29;;;;;;;16.85;4.28;;;;;;;10.77;92.14;103160.06;5013776;28;20407;-76